UAE213 OMDB-KMIA
Flight info
| Callsign | UAE213 |
|---|---|
| Flight time | N/A |
| Altitude | 30000 |
| Route | KUTLI4F KUTLI L519 ATUDO M318 GOLGU M550 RIBOT |
| Aircraft | B77W/H-SDE2E3GHIJ1J3J4J5M1P2RWXYZ/LB1D1 |
Departure
| Time | N/A |
|---|---|
| Airport | Dubai International Airport (OMDB) |
Arrival
| Time | 2026-05-04 05:18 |
|---|---|
| Airport | Miami International Airport (KMIA) |
| Time | Latitude | Longitude | Altitude | Speed | Heading |
|---|---|---|---|---|---|
| 2026-05-04 03:22 | 30.94786 | -60.14941 | 30123 ft | 443 kts | 249° |
| 2026-05-04 03:23 | 30.93618 | -60.18289 | 30262 ft | 448 kts | 249° |
| 2026-05-04 03:23 | 30.92443 | -60.21645 | 30720 ft | 446 kts | 249° |
| 2026-05-04 03:23 | 30.91273 | -60.24982 | 31229 ft | 444 kts | 249° |
| 2026-05-04 03:23 | 30.90110 | -60.28297 | 31741 ft | 441 kts | 249° |
| 2026-05-04 03:24 | 30.88950 | -60.31600 | 32230 ft | 440 kts | 248° |
| 2026-05-04 03:24 | 30.87799 | -60.34875 | 32696 ft | 439 kts | 248° |
| 2026-05-04 03:24 | 30.86653 | -60.38135 | 33122 ft | 439 kts | 248° |
| 2026-05-04 03:24 | 30.85494 | -60.41430 | 33546 ft | 438 kts | 248° |
| 2026-05-04 03:25 | 30.84338 | -60.44710 | 33912 ft | 439 kts | 248° |
| 2026-05-04 03:25 | 30.83191 | -60.47963 | 34245 ft | 439 kts | 248° |
| 2026-05-04 03:25 | 30.82038 | -60.51230 | 34788 ft | 434 kts | 248° |
| 2026-05-04 03:25 | 30.80893 | -60.54472 | 35267 ft | 431 kts | 248° |
| 2026-05-04 03:26 | 30.79755 | -60.57691 | 35661 ft | 430 kts | 249° |
| 2026-05-04 03:26 | 30.78618 | -60.60905 | 36020 ft | 429 kts | 249° |
| 2026-05-04 03:26 | 30.77483 | -60.64108 | 36395 ft | 428 kts | 249° |
| 2026-05-04 03:26 | 30.76351 | -60.67301 | 36787 ft | 426 kts | 249° |
| 2026-05-04 03:27 | 30.75223 | -60.70477 | 37167 ft | 424 kts | 250° |
| 2026-05-04 03:27 | 30.74101 | -60.73637 | 37524 ft | 423 kts | 250° |
| 2026-05-04 03:27 | 30.72977 | -60.76798 | 37929 ft | 420 kts | 250° |
| 2026-05-04 03:27 | 30.71861 | -60.79934 | 38130 ft | 422 kts | 250° |
| 2026-05-04 03:28 | 30.70732 | -60.83105 | 38127 ft | 425 kts | 250° |
| 2026-05-04 03:28 | 30.68476 | -60.89433 | 38126 ft | 422 kts | 250° |
| 2026-05-04 03:29 | 30.66250 | -60.95660 | 38129 ft | 419 kts | 250° |
| 2026-05-04 03:29 | 30.64016 | -61.01898 | 38123 ft | 417 kts | 250° |
| 2026-05-04 03:30 | 30.61786 | -61.08119 | 38121 ft | 417 kts | 250° |
| 2026-05-04 03:30 | 30.59558 | -61.14322 | 38121 ft | 416 kts | 250° |
| 2026-05-04 03:31 | 30.57326 | -61.20523 | 38142 ft | 416 kts | 250° |
| 2026-05-04 03:31 | 30.55090 | -61.26724 | 38087 ft | 417 kts | 250° |
| 2026-05-04 03:32 | 30.52845 | -61.32940 | 38123 ft | 419 kts | 250° |
| 2026-05-04 03:32 | 30.50588 | -61.39181 | 38130 ft | 421 kts | 250° |
| 2026-05-04 03:33 | 30.48318 | -61.45443 | 38126 ft | 422 kts | 250° |
| 2026-05-04 03:33 | 30.46041 | -61.51713 | 38127 ft | 422 kts | 250° |
| 2026-05-04 03:34 | 30.43763 | -61.57976 | 38124 ft | 422 kts | 250° |
| 2026-05-04 03:34 | 30.41481 | -61.64236 | 38113 ft | 421 kts | 250° |
| 2026-05-04 03:35 | 30.39202 | -61.70478 | 38102 ft | 420 kts | 250° |
| 2026-05-04 03:35 | 30.36920 | -61.76716 | 38116 ft | 421 kts | 250° |
| 2026-05-04 03:36 | 30.34631 | -61.82965 | 38127 ft | 422 kts | 250° |
| 2026-05-04 03:36 | 30.32335 | -61.89222 | 38123 ft | 423 kts | 250° |
| 2026-05-04 03:37 | 30.30046 | -61.95448 | 38129 ft | 423 kts | 249° |
| 2026-05-04 03:37 | 30.27726 | -62.01747 | 38118 ft | 423 kts | 249° |
| 2026-05-04 03:38 | 30.25436 | -62.07954 | 38119 ft | 422 kts | 249° |
| 2026-05-04 03:38 | 30.23137 | -62.14175 | 38116 ft | 421 kts | 249° |
| 2026-05-04 03:39 | 30.20833 | -62.20397 | 38117 ft | 421 kts | 249° |
| 2026-05-04 03:39 | 30.18528 | -62.26612 | 38125 ft | 420 kts | 249° |
| 2026-05-04 03:40 | 30.16225 | -62.32812 | 38118 ft | 419 kts | 249° |
| 2026-05-04 03:40 | 30.13924 | -62.38994 | 38117 ft | 418 kts | 249° |
| 2026-05-04 03:41 | 30.11625 | -62.45161 | 38118 ft | 417 kts | 249° |
| 2026-05-04 03:41 | 30.09326 | -62.51317 | 38091 ft | 417 kts | 249° |
| 2026-05-04 03:42 | 30.07025 | -62.57468 | 38116 ft | 418 kts | 249° |
| 2026-05-04 03:42 | 30.04718 | -62.63625 | 38118 ft | 418 kts | 249° |
| 2026-05-04 03:43 | 30.02406 | -62.69784 | 38113 ft | 418 kts | 249° |
| 2026-05-04 03:43 | 30.00073 | -62.75989 | 38119 ft | 419 kts | 249° |
| 2026-05-04 03:44 | 29.97751 | -62.82153 | 38118 ft | 419 kts | 249° |
| 2026-05-04 03:44 | 29.95428 | -62.88311 | 38113 ft | 419 kts | 249° |
| 2026-05-04 03:45 | 29.93103 | -62.94461 | 38078 ft | 418 kts | 249° |
| 2026-05-04 03:45 | 29.90780 | -63.00596 | 38108 ft | 418 kts | 249° |
| 2026-05-04 03:46 | 29.88453 | -63.06734 | 38116 ft | 418 kts | 249° |
| 2026-05-04 03:46 | 29.86120 | -63.12874 | 38115 ft | 419 kts | 249° |
| 2026-05-04 03:47 | 29.83782 | -63.19020 | 38116 ft | 419 kts | 249° |
| 2026-05-04 03:47 | 29.81440 | -63.25165 | 38114 ft | 419 kts | 249° |
| 2026-05-04 03:48 | 29.79099 | -63.31295 | 38116 ft | 418 kts | 248° |
| 2026-05-04 03:48 | 29.76758 | -63.37417 | 38088 ft | 418 kts | 249° |
| 2026-05-04 03:49 | 29.74399 | -63.43575 | 38123 ft | 418 kts | 249° |
| 2026-05-04 03:49 | 29.72051 | -63.49696 | 38112 ft | 418 kts | 248° |
| 2026-05-04 03:50 | 29.69698 | -63.55816 | 38117 ft | 418 kts | 248° |
| 2026-05-04 03:50 | 29.67344 | -63.61932 | 38111 ft | 418 kts | 248° |
| 2026-05-04 03:51 | 29.64985 | -63.68049 | 38108 ft | 418 kts | 248° |
| 2026-05-04 03:51 | 29.62624 | -63.74160 | 38125 ft | 418 kts | 248° |
| 2026-05-04 03:52 | 29.60264 | -63.80261 | 38090 ft | 418 kts | 248° |
| 2026-05-04 03:52 | 29.57900 | -63.86361 | 38109 ft | 418 kts | 248° |
| 2026-05-04 03:53 | 29.55535 | -63.92454 | 38113 ft | 418 kts | 248° |
| 2026-05-04 03:53 | 29.53164 | -63.98550 | 38111 ft | 418 kts | 248° |
| 2026-05-04 03:54 | 29.50791 | -64.04645 | 38112 ft | 418 kts | 248° |
| 2026-05-04 03:54 | 29.48414 | -64.10739 | 38111 ft | 418 kts | 248° |
| 2026-05-04 03:55 | 29.46034 | -64.16829 | 38112 ft | 418 kts | 248° |
| 2026-05-04 03:55 | 29.43655 | -64.22907 | 38092 ft | 417 kts | 248° |
| 2026-05-04 03:56 | 29.41277 | -64.28974 | 38109 ft | 417 kts | 248° |
| 2026-05-04 03:56 | 29.38891 | -64.35049 | 38113 ft | 418 kts | 248° |
| 2026-05-04 03:57 | 29.36503 | -64.41122 | 38121 ft | 418 kts | 248° |
| 2026-05-04 03:57 | 29.34513 | -64.46173 | 38112 ft | 418 kts | 248° |
| 2026-05-04 03:58 | 29.30923 | -64.55270 | 38114 ft | 417 kts | 248° |
| 2026-05-04 03:58 | 29.28529 | -64.61327 | 38114 ft | 417 kts | 248° |
| 2026-05-04 03:59 | 29.26134 | -64.67374 | 38078 ft | 417 kts | 248° |
| 2026-05-04 03:59 | 29.23736 | -64.73419 | 38108 ft | 418 kts | 248° |
| 2026-05-04 04:00 | 29.21327 | -64.79482 | 38119 ft | 419 kts | 248° |
| 2026-05-04 04:00 | 29.18909 | -64.85559 | 38118 ft | 420 kts | 248° |
| 2026-05-04 04:01 | 29.16481 | -64.91651 | 38110 ft | 421 kts | 248° |
| 2026-05-04 04:01 | 29.14047 | -64.97747 | 38124 ft | 422 kts | 248° |
| 2026-05-04 04:02 | 29.11606 | -65.03850 | 38117 ft | 421 kts | 247° |
| 2026-05-04 04:02 | 29.09168 | -65.09935 | 38117 ft | 421 kts | 247° |
| 2026-05-04 04:03 | 29.06730 | -65.16013 | 38110 ft | 420 kts | 248° |
| 2026-05-04 04:03 | 29.04293 | -65.22080 | 38117 ft | 420 kts | 248° |
| 2026-05-04 04:04 | 29.01850 | -65.28152 | 38117 ft | 421 kts | 248° |
| 2026-05-04 04:04 | 28.99404 | -65.34219 | 38122 ft | 421 kts | 247° |
| 2026-05-04 04:05 | 28.96955 | -65.40284 | 38119 ft | 420 kts | 247° |
| 2026-05-04 04:05 | 28.94505 | -65.46344 | 38119 ft | 420 kts | 247° |
| 2026-05-04 04:06 | 28.92054 | -65.52394 | 38118 ft | 420 kts | 247° |
| 2026-05-04 04:06 | 28.89603 | -65.58438 | 38106 ft | 419 kts | 247° |
| 2026-05-04 04:07 | 28.87149 | -65.64480 | 38123 ft | 420 kts | 247° |
| 2026-05-04 04:07 | 28.84690 | -65.70522 | 38114 ft | 420 kts | 247° |
| 2026-05-04 04:08 | 28.82228 | -65.76562 | 38117 ft | 420 kts | 247° |
| 2026-05-04 04:08 | 28.79764 | -65.82598 | 38117 ft | 420 kts | 247° |
| 2026-05-04 04:09 | 28.77299 | -65.88626 | 38114 ft | 420 kts | 247° |
| 2026-05-04 04:09 | 28.74832 | -65.94653 | 38125 ft | 419 kts | 247° |
| 2026-05-04 04:10 | 28.72362 | -66.00674 | 38102 ft | 419 kts | 247° |
| 2026-05-04 04:10 | 28.69892 | -66.06688 | 38109 ft | 419 kts | 247° |
| 2026-05-04 04:11 | 28.67418 | -66.12703 | 38113 ft | 420 kts | 247° |
| 2026-05-04 04:11 | 28.64947 | -66.18700 | 38112 ft | 420 kts | 247° |
| 2026-05-04 04:12 | 28.58298 | -66.34792 | 38144 ft | 420 kts | 247° |
| 2026-05-04 04:12 | 28.48379 | -66.58675 | 38129 ft | 420 kts | 247° |
| 2026-05-04 04:13 | 28.38378 | -66.82610 | 38104 ft | 418 kts | 247° |
| 2026-05-04 04:13 | 28.28361 | -67.06439 | 38112 ft | 417 kts | 247° |
| 2026-05-04 04:14 | 28.18269 | -67.30302 | 38131 ft | 416 kts | 246° |
| 2026-05-04 04:14 | 28.08225 | -67.53914 | 38104 ft | 416 kts | 246° |
| 2026-05-04 04:15 | 27.98124 | -67.77517 | 38098 ft | 416 kts | 246° |
| 2026-05-04 04:15 | 27.87990 | -68.01059 | 38114 ft | 417 kts | 246° |
| 2026-05-04 04:16 | 27.77842 | -68.24498 | 38122 ft | 418 kts | 246° |
| 2026-05-04 04:16 | 27.67586 | -68.48050 | 38136 ft | 419 kts | 246° |
| 2026-05-04 04:17 | 27.57229 | -68.71698 | 38087 ft | 421 kts | 245° |
| 2026-05-04 04:17 | 27.46834 | -68.95297 | 38119 ft | 420 kts | 245° |
| 2026-05-04 04:18 | 27.36406 | -69.18837 | 38093 ft | 420 kts | 245° |
| 2026-05-04 04:18 | 27.25952 | -69.42301 | 38098 ft | 420 kts | 245° |
| 2026-05-04 04:19 | 27.15452 | -69.65739 | 38080 ft | 419 kts | 245° |
| 2026-05-04 04:19 | 27.04917 | -69.89124 | 38014 ft | 420 kts | 245° |
| 2026-05-04 04:20 | 26.96363 | -70.13284 | 38066 ft | 416 kts | 254° |
| 2026-05-04 04:20 | 26.89557 | -70.38080 | 38084 ft | 416 kts | 253° |
| 2026-05-04 04:21 | 26.82702 | -70.62853 | 38094 ft | 416 kts | 253° |
| 2026-05-04 04:21 | 26.75818 | -70.87546 | 38079 ft | 415 kts | 253° |
| 2026-05-04 04:22 | 26.68912 | -71.12133 | 38065 ft | 414 kts | 253° |
| 2026-05-04 04:22 | 26.61957 | -71.36716 | 38073 ft | 415 kts | 253° |
| 2026-05-04 04:23 | 26.54954 | -71.61289 | 38094 ft | 415 kts | 253° |
| 2026-05-04 04:23 | 26.47919 | -71.85794 | 38072 ft | 414 kts | 253° |
| 2026-05-04 04:24 | 26.40858 | -72.10219 | 38058 ft | 413 kts | 252° |
| 2026-05-04 04:24 | 26.33825 | -72.34373 | 38036 ft | 411 kts | 252° |
| 2026-05-04 04:25 | 26.26722 | -72.58602 | 38070 ft | 412 kts | 252° |
| 2026-05-04 04:25 | 26.19562 | -72.82854 | 38054 ft | 412 kts | 252° |
| 2026-05-04 04:26 | 26.12363 | -73.07069 | 38036 ft | 413 kts | 251° |
| 2026-05-04 04:26 | 26.05127 | -73.31248 | 38080 ft | 414 kts | 251° |
| 2026-05-04 04:27 | 25.97832 | -73.55459 | 38046 ft | 415 kts | 251° |
| 2026-05-04 04:27 | 25.90951 | -73.79920 | 37885 ft | 418 kts | 255° |
| 2026-05-04 04:28 | 25.88129 | -73.92379 | 38129 ft | 414 kts | 255° |
| 2026-05-04 04:28 | 25.85280 | -74.04796 | 38173 ft | 414 kts | 255° |
| 2026-05-04 04:28 | 25.82407 | -74.17255 | 37991 ft | 418 kts | 255° |
| 2026-05-04 04:28 | 25.79522 | -74.29710 | 38070 ft | 417 kts | 255° |
| 2026-05-04 04:29 | 25.73724 | -74.54588 | 38063 ft | 416 kts | 255° |
| 2026-05-04 04:29 | 25.67971 | -74.79075 | 38040 ft | 417 kts | 255° |
| 2026-05-04 04:30 | 25.62022 | -75.04187 | 38052 ft | 418 kts | 255° |
| 2026-05-04 04:30 | 25.56050 | -75.29191 | 38044 ft | 417 kts | 255° |
| 2026-05-04 04:31 | 25.50125 | -75.53803 | 38032 ft | 416 kts | 255° |
| 2026-05-04 04:31 | 25.44126 | -75.78527 | 38053 ft | 416 kts | 255° |
| 2026-05-04 04:32 | 25.39833 | -75.96097 | 38033 ft | 416 kts | 255° |
| 2026-05-04 04:32 | 25.38280 | -76.02432 | 38036 ft | 416 kts | 255° |
| 2026-05-04 04:33 | 25.36762 | -76.08606 | 38036 ft | 416 kts | 255° |
| 2026-05-04 04:33 | 25.35243 | -76.14778 | 38052 ft | 416 kts | 255° |
| 2026-05-04 04:34 | 25.33723 | -76.20940 | 38038 ft | 415 kts | 255° |
| 2026-05-04 04:34 | 25.32203 | -76.27090 | 38033 ft | 414 kts | 255° |
| 2026-05-04 04:35 | 25.30684 | -76.33224 | 37983 ft | 414 kts | 255° |
| 2026-05-04 04:35 | 25.29163 | -76.39357 | 38019 ft | 414 kts | 255° |
| 2026-05-04 04:36 | 25.27633 | -76.45512 | 38040 ft | 416 kts | 255° |
| 2026-05-04 04:36 | 25.26093 | -76.51694 | 38057 ft | 418 kts | 255° |
| 2026-05-04 04:37 | 25.22998 | -76.64087 | 38032 ft | 418 kts | 255° |
| 2026-05-04 04:38 | 25.21449 | -76.70270 | 38026 ft | 417 kts | 255° |
| 2026-05-04 04:38 | 25.19900 | -76.76442 | 38027 ft | 417 kts | 255° |
| 2026-05-04 04:39 | 25.18350 | -76.82604 | 38026 ft | 416 kts | 255° |
| 2026-05-04 04:39 | 25.17062 | -76.87718 | 38035 ft | 416 kts | 255° |
| 2026-05-04 04:40 | 25.15517 | -76.93843 | 38034 ft | 416 kts | 255° |
| 2026-05-04 04:40 | 25.13963 | -76.99989 | 38033 ft | 415 kts | 255° |
| 2026-05-04 04:41 | 25.12409 | -77.06125 | 38035 ft | 415 kts | 255° |
| 2026-05-04 04:41 | 25.10855 | -77.12249 | 38039 ft | 415 kts | 254° |
| 2026-05-04 04:42 | 25.09295 | -77.18383 | 38040 ft | 415 kts | 254° |
| 2026-05-04 04:42 | 25.07733 | -77.24519 | 38037 ft | 416 kts | 254° |
| 2026-05-04 04:43 | 25.06165 | -77.30665 | 38053 ft | 417 kts | 254° |
| 2026-05-04 04:43 | 25.04591 | -77.36825 | 38060 ft | 418 kts | 254° |
| 2026-05-04 04:44 | 25.03009 | -77.43000 | 38051 ft | 419 kts | 254° |
| 2026-05-04 04:44 | 25.02018 | -77.49320 | 38060 ft | 419 kts | 263° |
| 2026-05-04 04:45 | 25.01559 | -77.55740 | 38052 ft | 420 kts | 264° |
| 2026-05-04 04:47 | 24.99708 | -77.78106 | 38033 ft | 419 kts | 263° |
| 2026-05-04 04:47 | 24.99143 | -77.84535 | 38021 ft | 419 kts | 263° |
| 2026-05-04 04:48 | 24.98588 | -77.90839 | 38028 ft | 418 kts | 263° |
| 2026-05-04 04:49 | 24.97193 | -78.06800 | 38025 ft | 418 kts | 264° |
| 2026-05-04 04:49 | 24.96960 | -78.13203 | 38021 ft | 418 kts | 266° |
| 2026-05-04 04:50 | 24.96813 | -78.19610 | 38020 ft | 418 kts | 266° |
| 2026-05-04 04:50 | 24.96635 | -78.26013 | 38021 ft | 418 kts | 266° |
| 2026-05-04 04:51 | 24.96433 | -78.32417 | 38024 ft | 418 kts | 266° |
| 2026-05-04 04:51 | 24.96223 | -78.38818 | 38020 ft | 418 kts | 266° |
| 2026-05-04 04:52 | 24.96011 | -78.45209 | 38023 ft | 418 kts | 266° |
| 2026-05-04 04:52 | 24.95797 | -78.51619 | 38021 ft | 418 kts | 266° |
| 2026-05-04 04:53 | 24.95580 | -78.58030 | 38020 ft | 419 kts | 266° |
| 2026-05-04 04:53 | 24.95463 | -78.64441 | 38019 ft | 420 kts | 272° |
| 2026-05-04 04:54 | 24.96374 | -78.70807 | 38016 ft | 423 kts | 277° |
| 2026-05-04 04:54 | 24.97427 | -78.77205 | 37521 ft | 431 kts | 276° |
| 2026-05-04 04:55 | 24.97940 | -78.80487 | 36770 ft | 434 kts | 276° |
| 2026-05-04 04:55 | 24.98438 | -78.83761 | 35947 ft | 434 kts | 276° |
| 2026-05-04 04:55 | 24.98928 | -78.87048 | 35041 ft | 435 kts | 276° |
| 2026-05-04 04:55 | 24.99414 | -78.90347 | 34081 ft | 439 kts | 276° |
| 2026-05-04 04:56 | 24.99904 | -78.93684 | 33074 ft | 441 kts | 276° |
| 2026-05-04 04:56 | 25.00394 | -78.97011 | 32317 ft | 438 kts | 276° |
| 2026-05-04 04:56 | 25.00880 | -79.00315 | 31584 ft | 435 kts | 276° |
| 2026-05-04 04:56 | 25.01362 | -79.03594 | 30884 ft | 433 kts | 276° |
| 2026-05-04 04:57 | 25.01841 | -79.06859 | 30188 ft | 430 kts | 276° |
| 2026-05-04 04:57 | 25.02363 | -79.10091 | 29386 ft | 428 kts | 281° |
| 2026-05-04 04:57 | 25.03399 | -79.13170 | 28663 ft | 430 kts | 294° |
| 2026-05-04 04:57 | 25.05012 | -79.15886 | 28011 ft | 427 kts | 300° |
| 2026-05-04 04:58 | 25.06697 | -79.18562 | 27334 ft | 423 kts | 299° |
| 2026-05-04 04:58 | 25.08341 | -79.21238 | 26682 ft | 419 kts | 299° |
| 2026-05-04 04:58 | 25.09952 | -79.23902 | 26036 ft | 416 kts | 298° |
| 2026-05-04 04:58 | 25.11545 | -79.26557 | 25410 ft | 414 kts | 298° |
| 2026-05-04 04:59 | 25.13124 | -79.29200 | 24755 ft | 412 kts | 298° |
| 2026-05-04 04:59 | 25.14696 | -79.31831 | 24130 ft | 410 kts | 298° |
| 2026-05-04 04:59 | 25.16259 | -79.34450 | 23481 ft | 408 kts | 298° |
| 2026-05-04 04:59 | 25.17809 | -79.37042 | 23168 ft | 397 kts | 298° |
| 2026-05-04 05:00 | 25.19305 | -79.39541 | 22967 ft | 384 kts | 298° |
| 2026-05-04 05:00 | 25.20758 | -79.41975 | 22590 ft | 377 kts | 298° |
| 2026-05-04 05:00 | 25.23618 | -79.46772 | 21567 ft | 371 kts | 299° |
| 2026-05-04 05:01 | 25.25033 | -79.49146 | 21066 ft | 369 kts | 299° |
| 2026-05-04 05:01 | 25.26436 | -79.51504 | 20575 ft | 367 kts | 299° |
| 2026-05-04 05:01 | 25.27834 | -79.53852 | 20090 ft | 365 kts | 298° |
| 2026-05-04 05:01 | 25.29227 | -79.56195 | 19581 ft | 364 kts | 298° |
| 2026-05-04 05:02 | 25.30615 | -79.58529 | 19074 ft | 363 kts | 298° |
| 2026-05-04 05:02 | 25.31999 | -79.60860 | 18579 ft | 362 kts | 299° |
| 2026-05-04 05:02 | 25.33381 | -79.63186 | 18037 ft | 362 kts | 299° |
| 2026-05-04 05:02 | 25.34759 | -79.65507 | 17492 ft | 361 kts | 299° |
| 2026-05-04 05:03 | 25.35604 | -79.66931 | 17193 ft | 359 kts | 299° |
| 2026-05-04 05:03 | 25.36973 | -79.69237 | 16684 ft | 357 kts | 299° |
| 2026-05-04 05:04 | 25.41114 | -79.75998 | 15381 ft | 348 kts | 302° |
| 2026-05-04 05:04 | 25.42517 | -79.78148 | 15016 ft | 342 kts | 302° |
| 2026-05-04 05:04 | 25.43893 | -79.80265 | 14669 ft | 336 kts | 302° |
| 2026-05-04 05:06 | 25.53026 | -79.94504 | 12097 ft | 316 kts | 302° |
| 2026-05-04 05:06 | 25.54295 | -79.96489 | 11731 ft | 315 kts | 302° |
| 2026-05-04 05:06 | 25.55555 | -79.98460 | 11359 ft | 313 kts | 302° |
| 2026-05-04 05:07 | 25.56810 | -80.00423 | 11078 ft | 310 kts | 302° |
| 2026-05-04 05:07 | 25.58052 | -80.02367 | 10826 ft | 309 kts | 302° |
| 2026-05-04 05:07 | 25.59300 | -80.04322 | 10580 ft | 313 kts | 302° |
| 2026-05-04 05:09 | 25.68326 | -80.20657 | 8240 ft | 305 kts | 292° |
| 2026-05-04 05:09 | 25.69196 | -80.22764 | 7954 ft | 304 kts | 292° |
| 2026-05-04 05:10 | 25.70087 | -80.24886 | 7669 ft | 303 kts | 293° |
| 2026-05-04 05:10 | 25.70945 | -80.26998 | 7370 ft | 295 kts | 287° |
| 2026-05-04 05:10 | 25.71232 | -80.29212 | 7065 ft | 288 kts | 266° |
| 2026-05-04 05:10 | 25.71091 | -80.31449 | 6814 ft | 295 kts | 266° |
| 2026-05-04 05:11 | 25.70972 | -80.33736 | 6570 ft | 298 kts | 266° |
| 2026-05-04 05:11 | 25.70864 | -80.36022 | 6333 ft | 296 kts | 264° |
| 2026-05-04 05:11 | 25.70688 | -80.38257 | 5951 ft | 289 kts | 266° |
| 2026-05-04 05:11 | 25.70602 | -80.40435 | 5662 ft | 274 kts | 267° |
| 2026-05-04 05:12 | 25.70529 | -80.42493 | 5332 ft | 260 kts | 266° |
| 2026-05-04 05:12 | 25.70441 | -80.44441 | 5018 ft | 246 kts | 265° |
| 2026-05-04 05:12 | 25.70305 | -80.46279 | 4703 ft | 233 kts | 265° |
| 2026-05-04 05:12 | 25.70177 | -80.48026 | 4375 ft | 222 kts | 266° |
| 2026-05-04 05:13 | 25.70396 | -80.49669 | 4037 ft | 217 kts | 296° |
| 2026-05-04 05:13 | 25.71402 | -80.50881 | 3755 ft | 217 kts | 330° |
| 2026-05-04 05:13 | 25.72833 | -80.51332 | 3505 ft | 212 kts | 351° |
| 2026-05-04 05:13 | 25.74280 | -80.51169 | 3226 ft | 213 kts | 23° |
| 2026-05-04 05:14 | 25.75417 | -80.50162 | 3024 ft | 209 kts | 49° |
| 2026-05-04 05:14 | 25.76306 | -80.48883 | 3030 ft | 213 kts | 52° |
| 2026-05-04 05:14 | 25.77193 | -80.47548 | 2882 ft | 214 kts | 54° |
| 2026-05-04 05:14 | 25.77789 | -80.46075 | 2595 ft | 210 kts | 80° |
| 2026-05-04 05:15 | 25.77998 | -80.44505 | 2348 ft | 203 kts | 82° |
| 2026-05-04 05:15 | 25.78133 | -80.42953 | 2087 ft | 202 kts | 86° |
| 2026-05-04 05:15 | 25.78202 | -80.41403 | 1850 ft | 201 kts | 87° |
| 2026-05-04 05:15 | 25.78265 | -80.39842 | 1578 ft | 204 kts | 87° |
| 2026-05-04 05:16 | 25.78326 | -80.38317 | 1287 ft | 190 kts | 87° |
| 2026-05-04 05:16 | 25.78383 | -80.36911 | 1041 ft | 175 kts | 87° |
| 2026-05-04 05:16 | 25.78437 | -80.35638 | 835 ft | 154 kts | 87° |
| 2026-05-04 05:16 | 25.78486 | -80.34481 | 651 ft | 151 kts | 87° |
| 2026-05-04 05:17 | 25.78537 | -80.33327 | 429 ft | 148 kts | 87° |
| 2026-05-04 05:17 | 25.78581 | -80.32205 | 230 ft | 144 kts | 87° |
| 2026-05-04 05:17 | 25.78625 | -80.31094 | 52 ft | 144 kts | 87° |
| 2026-05-04 05:17 | 25.78671 | -80.30041 | 21 ft | 126 kts | 87° |
| 2026-05-04 05:18 | 25.78704 | -80.29207 | 21 ft | 90 kts | 87° |
| 2026-05-04 05:18 | 25.78727 | -80.28651 | 20 ft | 54 kts | 87° |
| 2026-05-04 05:18 | 25.78745 | -80.28257 | 20 ft | 48 kts | 87° |
| 2026-05-04 05:18 | 25.78758 | -80.27921 | 20 ft | 37 kts | 88° |
| 2026-05-04 05:19 | 25.78766 | -80.27718 | 20 ft | 16 kts | 83° |
| 2026-05-04 05:19 | 25.78816 | -80.27654 | 20 ft | 11 kts | 12° |
| 2026-05-04 05:19 | 25.78857 | -80.27651 | 20 ft | 1 kts | 7° |
| 2026-05-04 05:19 | 25.78873 | -80.27643 | 20 ft | 5 kts | 34° |
| 2026-05-04 05:20 | 25.78891 | -80.27604 | 20 ft | 6 kts | 76° |
| 2026-05-04 05:20 | 25.78901 | -80.27551 | 22 ft | 8 kts | 78° |
| 2026-05-04 05:20 | 25.78932 | -80.27503 | 20 ft | 8 kts | 41° |
| 2026-05-04 05:20 | 25.78971 | -80.27453 | 20 ft | 8 kts | 52° |
| 2026-05-04 05:21 | 25.78997 | -80.27416 | 21 ft | 2 kts | 51° |
| 2026-05-04 05:21 | 25.79008 | -80.27401 | 20 ft | 0 kts | 51° |
| 2026-05-04 05:22 | 25.79008 | -80.27400 | 20 ft | 0 kts | 51° |
| 2026-05-04 05:22 | 25.79009 | -80.27400 | 20 ft | 0 kts | 51° |